sensor_id;sensor_type;location;lat;lon;timestamp;temperature;humidity
71047;SHT31;58703;48.978;8.982;2022-11-20T00:00:35;3.75;99.99
71047;SHT31;58703;48.978;8.982;2022-11-20T00:03:02;3.83;99.99
71047;SHT31;58703;48.978;8.982;2022-11-20T00:05:28;3.87;99.99
71047;SHT31;58703;48.978;8.982;2022-11-20T00:07:55;3.89;99.99
71047;SHT31;58703;48.978;8.982;2022-11-20T00:10:21;3.93;99.99
71047;SHT31;58703;48.978;8.982;2022-11-20T00:12:46;3.96;99.99
71047;SHT31;58703;48.978;8.982;2022-11-20T00:15:12;3.90;99.99
71047;SHT31;58703;48.978;8.982;2022-11-20T00:17:39;3.95;99.99
71047;SHT31;58703;48.978;8.982;2022-11-20T00:20:04;3.97;99.99
71047;SHT31;58703;48.978;8.982;2022-11-20T00:22:30;4.00;99.99
71047;SHT31;58703;48.978;8.982;2022-11-20T00:24:56;4.07;99.99
71047;SHT31;58703;48.978;8.982;2022-11-20T00:27:24;4.18;99.99
71047;SHT31;58703;48.978;8.982;2022-11-20T00:29:50;4.16;99.99
71047;SHT31;58703;48.978;8.982;2022-11-20T00:32:15;4.21;99.99
71047;SHT31;58703;48.978;8.982;2022-11-20T00:34:42;4.18;99.99
71047;SHT31;58703;48.978;8.982;2022-11-20T00:37:07;3.99;99.99
71047;SHT31;58703;48.978;8.982;2022-11-20T00:39:33;3.81;99.99
71047;SHT31;58703;48.978;8.982;2022-11-20T00:41:58;3.99;99.99
71047;SHT31;58703;48.978;8.982;2022-11-20T00:44:24;4.06;99.99
71047;SHT31;58703;48.978;8.982;2022-11-20T00:46:49;3.97;99.99
71047;SHT31;58703;48.978;8.982;2022-11-20T00:49:16;3.82;99.99
71047;SHT31;58703;48.978;8.982;2022-11-20T00:51:42;3.76;99.99
71047;SHT31;58703;48.978;8.982;2022-11-20T00:54:07;3.85;99.99
71047;SHT31;58703;48.978;8.982;2022-11-20T00:56:33;3.85;99.99
71047;SHT31;58703;48.978;8.982;2022-11-20T00:59:00;3.97;99.99
71047;SHT31;58703;48.978;8.982;2022-11-20T01:01:29;4.05;99.99
71047;SHT31;58703;48.978;8.982;2022-11-20T01:03:56;4.10;99.99
71047;SHT31;58703;48.978;8.982;2022-11-20T01:06:29;4.21;99.99
71047;SHT31;58703;48.978;8.982;2022-11-20T01:08:58;4.26;99.99
71047;SHT31;58703;48.978;8.982;2022-11-20T01:11:31;4.10;99.99
71047;SHT31;58703;48.978;8.982;2022-11-20T01:13:58;4.21;99.99
71047;SHT31;58703;48.978;8.982;2022-11-20T01:16:29;4.29;99.99
71047;SHT31;58703;48.978;8.982;2022-11-20T01:18:58;4.29;99.99
71047;SHT31;58703;48.978;8.982;2022-11-20T01:21:35;4.33;99.99
71047;SHT31;58703;48.978;8.982;2022-11-20T01:24:03;4.34;99.99
71047;SHT31;58703;48.978;8.982;2022-11-20T01:26:31;4.36;99.99
71047;SHT31;58703;48.978;8.982;2022-11-20T01:28:58;4.33;99.99
71047;SHT31;58703;48.978;8.982;2022-11-20T01:31:28;4.44;99.99
71047;SHT31;58703;48.978;8.982;2022-11-20T01:33:56;4.37;99.99
71047;SHT31;58703;48.978;8.982;2022-11-20T01:36:24;4.44;99.99
71047;SHT31;58703;48.978;8.982;2022-11-20T01:38:57;4.53;99.99
71047;SHT31;58703;48.978;8.982;2022-11-20T01:41:25;4.48;99.99
71047;SHT31;58703;48.978;8.982;2022-11-20T01:44:11;4.57;99.99
71047;SHT31;58703;48.978;8.982;2022-11-20T01:46:40;4.43;99.99
71047;SHT31;58703;48.978;8.982;2022-11-20T01:49:09;4.41;99.99
71047;SHT31;58703;48.978;8.982;2022-11-20T01:51:44;4.50;99.99
71047;SHT31;58703;48.978;8.982;2022-11-20T01:54:39;4.48;99.99
71047;SHT31;58703;48.978;8.982;2022-11-20T01:57:08;4.57;99.99
71047;SHT31;58703;48.978;8.982;2022-11-20T01:59:40;4.34;99.99
71047;SHT31;58703;48.978;8.982;2022-11-20T02:02:07;4.30;99.99
71047;SHT31;58703;48.978;8.982;2022-11-20T02:04:33;4.37;99.99
71047;SHT31;58703;48.978;8.982;2022-11-20T02:07:01;4.44;99.99
71047;SHT31;58703;48.978;8.982;2022-11-20T02:09:28;4.36;99.99
71047;SHT31;58703;48.978;8.982;2022-11-20T02:11:55;4.32;99.99
71047;SHT31;58703;48.978;8.982;2022-11-20T02:14:22;4.36;99.99
71047;SHT31;58703;48.978;8.982;2022-11-20T02:16:49;4.40;99.99
71047;SHT31;58703;48.978;8.982;2022-11-20T02:19:27;4.44;99.99
71047;SHT31;58703;48.978;8.982;2022-11-20T02:22:07;4.47;99.99
71047;SHT31;58703;48.978;8.982;2022-11-20T02:24:37;4.41;99.99
71047;SHT31;58703;48.978;8.982;2022-11-20T02:27:07;4.40;99.99
71047;SHT31;58703;48.978;8.982;2022-11-20T02:29:39;4.46;99.99
71047;SHT31;58703;48.978;8.982;2022-11-20T02:32:06;4.51;99.99
71047;SHT31;58703;48.978;8.982;2022-11-20T02:34:32;4.50;99.99
71047;SHT31;58703;48.978;8.982;2022-11-20T02:36:58;4.57;99.99
71047;SHT31;58703;48.978;8.982;2022-11-20T02:39:26;4.62;99.99
71047;SHT31;58703;48.978;8.982;2022-11-20T02:41:54;4.67;99.99
71047;SHT31;58703;48.978;8.982;2022-11-20T02:44:22;4.61;99.99
71047;SHT31;58703;48.978;8.982;2022-11-20T02:46:47;4.60;99.99
71047;SHT31;58703;48.978;8.982;2022-11-20T02:49:13;4.56;99.99
71047;SHT31;58703;48.978;8.982;2022-11-20T02:51:38;4.57;99.99
71047;SHT31;58703;48.978;8.982;2022-11-20T02:54:04;4.64;99.99
71047;SHT31;58703;48.978;8.982;2022-11-20T02:56:31;4.64;99.99
71047;SHT31;58703;48.978;8.982;2022-11-20T02:58:58;4.67;99.99
71047;SHT31;58703;48.978;8.982;2022-11-20T03:01:23;4.67;99.99
71047;SHT31;58703;48.978;8.982;2022-11-20T03:03:50;4.68;99.99
71047;SHT31;58703;48.978;8.982;2022-11-20T03:06:16;4.68;99.99
71047;SHT31;58703;48.978;8.982;2022-11-20T03:08:42;4.71;99.99
71047;SHT31;58703;48.978;8.982;2022-11-20T03:11:08;4.72;99.99
71047;SHT31;58703;48.978;8.982;2022-11-20T03:13:34;4.72;99.99
71047;SHT31;58703;48.978;8.982;2022-11-20T03:16:13;4.72;99.99
71047;SHT31;58703;48.978;8.982;2022-11-20T03:18:40;4.74;99.99
71047;SHT31;58703;48.978;8.982;2022-11-20T03:21:07;4.81;99.99
71047;SHT31;58703;48.978;8.982;2022-11-20T03:23:33;4.96;99.99
71047;SHT31;58703;48.978;8.982;2022-11-20T03:26:24;4.96;99.99
71047;SHT31;58703;48.978;8.982;2022-11-20T03:28:52;5.05;99.99
71047;SHT31;58703;48.978;8.982;2022-11-20T03:31:21;5.08;99.99
71047;SHT31;58703;48.978;8.982;2022-11-20T03:33:47;5.11;99.99
71047;SHT31;58703;48.978;8.982;2022-11-20T03:36:14;5.15;99.99
71047;SHT31;58703;48.978;8.982;2022-11-20T03:38:40;5.32;99.95
71047;SHT31;58703;48.978;8.982;2022-11-20T03:41:10;5.09;99.99
71047;SHT31;58703;48.978;8.982;2022-11-20T03:43:36;4.98;99.99
71047;SHT31;58703;48.978;8.982;2022-11-20T03:46:04;4.89;99.99
71047;SHT31;58703;48.978;8.982;2022-11-20T03:48:30;4.88;99.99
71047;SHT31;58703;48.978;8.982;2022-11-20T03:51:22;5.01;99.99
71047;SHT31;58703;48.978;8.982;2022-11-20T03:53:49;5.23;99.99
71047;SHT31;58703;48.978;8.982;2022-11-20T03:56:17;5.69;98.22
71047;SHT31;58703;48.978;8.982;2022-11-20T03:58:43;5.77;97.86
71047;SHT31;58703;48.978;8.982;2022-11-20T04:01:15;5.89;97.37
71047;SHT31;58703;48.978;8.982;2022-11-20T04:03:42;5.89;97.65
71047;SHT31;58703;48.978;8.982;2022-11-20T04:06:20;5.95;97.14
71047;SHT31;58703;48.978;8.982;2022-11-20T04:08:47;6.13;96.26
71047;SHT31;58703;48.978;8.982;2022-11-20T04:11:17;6.17;95.86
71047;SHT31;58703;48.978;8.982;2022-11-20T04:13:55;6.17;96.43
71047;SHT31;58703;48.978;8.982;2022-11-20T04:16:23;6.11;96.51
71047;SHT31;58703;48.978;8.982;2022-11-20T04:18:57;6.18;96.05
71047;SHT31;58703;48.978;8.982;2022-11-20T04:21:25;6.29;94.87
71047;SHT31;58703;48.978;8.982;2022-11-20T04:23:51;6.35;95.01
71047;SHT31;58703;48.978;8.982;2022-11-20T04:26:18;6.31;94.69
71047;SHT31;58703;48.978;8.982;2022-11-20T04:28:44;6.34;94.67
71047;SHT31;58703;48.978;8.982;2022-11-20T04:31:15;6.41;93.77
71047;SHT31;58703;48.978;8.982;2022-11-20T04:33:42;6.38;94.69
71047;SHT31;58703;48.978;8.982;2022-11-20T04:36:16;6.41;94.29
71047;SHT31;58703;48.978;8.982;2022-11-20T04:38:42;6.38;94.15
71047;SHT31;58703;48.978;8.982;2022-11-20T04:41:13;6.44;93.82
71047;SHT31;58703;48.978;8.982;2022-11-20T04:43:39;6.46;93.82
71047;SHT31;58703;48.978;8.982;2022-11-20T04:46:05;6.42;94.17
71047;SHT31;58703;48.978;8.982;2022-11-20T04:48:32;6.44;94.09
71047;SHT31;58703;48.978;8.982;2022-11-20T04:50:57;6.48;93.88
71047;SHT31;58703;48.978;8.982;2022-11-20T04:53:23;6.57;92.75
71047;SHT31;58703;48.978;8.982;2022-11-20T04:55:49;6.55;93.14
71047;SHT31;58703;48.978;8.982;2022-11-20T04:58:16;6.55;92.96
71047;SHT31;58703;48.978;8.982;2022-11-20T05:00:42;6.62;92.60
71047;SHT31;58703;48.978;8.982;2022-11-20T05:03:08;6.56;92.97
71047;SHT31;58703;48.978;8.982;2022-11-20T05:05:34;6.49;94.20
71047;SHT31;58703;48.978;8.982;2022-11-20T05:08:01;6.44;94.21
71047;SHT31;58703;48.978;8.982;2022-11-20T05:10:27;6.48;93.92
71047;SHT31;58703;48.978;8.982;2022-11-20T05:12:53;6.49;93.26
71047;SHT31;58703;48.978;8.982;2022-11-20T05:15:18;6.56;92.85
71047;SHT31;58703;48.978;8.982;2022-11-20T05:17:51;6.62;92.53
71047;SHT31;58703;48.978;8.982;2022-11-20T05:20:19;6.69;92.15
71047;SHT31;58703;48.978;8.982;2022-11-20T05:22:44;6.61;92.56
71047;SHT31;58703;48.978;8.982;2022-11-20T05:25:10;6.53;93.35
71047;SHT31;58703;48.978;8.982;2022-11-20T05:27:37;6.50;93.74
71047;SHT31;58703;48.978;8.982;2022-11-20T05:30:04;6.52;93.76
71047;SHT31;58703;48.978;8.982;2022-11-20T05:32:29;6.50;93.34
71047;SHT31;58703;48.978;8.982;2022-11-20T05:34:56;6.45;94.08
71047;SHT31;58703;48.978;8.982;2022-11-20T05:37:22;6.45;94.36
71047;SHT31;58703;48.978;8.982;2022-11-20T05:39:47;6.55;93.03
71047;SHT31;58703;48.978;8.982;2022-11-20T05:42:12;6.53;93.37
71047;SHT31;58703;48.978;8.982;2022-11-20T05:45:01;6.52;93.39
71047;SHT31;58703;48.978;8.982;2022-11-20T05:47:28;6.59;93.19
71047;SHT31;58703;48.978;8.982;2022-11-20T05:49:56;6.59;93.07
71047;SHT31;58703;48.978;8.982;2022-11-20T05:52:22;6.61;93.17
71047;SHT31;58703;48.978;8.982;2022-11-20T05:54:48;6.56;93.81
71047;SHT31;58703;48.978;8.982;2022-11-20T05:57:14;6.56;93.39
71047;SHT31;58703;48.978;8.982;2022-11-20T05:59:39;6.64;92.50
71047;SHT31;58703;48.978;8.982;2022-11-20T06:02:05;6.68;92.36
71047;SHT31;58703;48.978;8.982;2022-11-20T06:04:30;6.61;93.54
71047;SHT31;58703;48.978;8.982;2022-11-20T06:06:57;6.53;93.09
71047;SHT31;58703;48.978;8.982;2022-11-20T06:09:23;6.68;91.79
71047;SHT31;58703;48.978;8.982;2022-11-20T06:11:48;6.68;92.42
71047;SHT31;58703;48.978;8.982;2022-11-20T06:14:13;6.71;92.25
71047;SHT31;58703;48.978;8.982;2022-11-20T06:16:39;6.68;92.08
71047;SHT31;58703;48.978;8.982;2022-11-20T06:19:05;6.69;92.50
71047;SHT31;58703;48.978;8.982;2022-11-20T06:21:30;6.68;92.55
71047;SHT31;58703;48.978;8.982;2022-11-20T06:23:57;6.68;92.42
71047;SHT31;58703;48.978;8.982;2022-11-20T06:26:25;6.65;92.40
71047;SHT31;58703;48.978;8.982;2022-11-20T06:28:53;6.73;91.78
71047;SHT31;58703;48.978;8.982;2022-11-20T06:31:22;6.68;92.52
71047;SHT31;58703;48.978;8.982;2022-11-20T06:33:48;6.66;92.76
71047;SHT31;58703;48.978;8.982;2022-11-20T06:36:17;6.62;93.24
71047;SHT31;58703;48.978;8.982;2022-11-20T06:38:44;6.62;93.04
71047;SHT31;58703;48.978;8.982;2022-11-20T06:41:12;6.61;93.27
71047;SHT31;58703;48.978;8.982;2022-11-20T06:43:38;6.62;93.25
71047;SHT31;58703;48.978;8.982;2022-11-20T06:46:04;6.57;93.00
71047;SHT31;58703;48.978;8.982;2022-11-20T06:48:30;6.57;92.58
71047;SHT31;58703;48.978;8.982;2022-11-20T06:50:56;6.69;91.39
71047;SHT31;58703;48.978;8.982;2022-11-20T06:53:22;6.57;93.67
71047;SHT31;58703;48.978;8.982;2022-11-20T06:55:51;6.45;94.02
71047;SHT31;58703;48.978;8.982;2022-11-20T06:58:17;6.44;93.73
71047;SHT31;58703;48.978;8.982;2022-11-20T07:00:43;6.45;93.82
71047;SHT31;58703;48.978;8.982;2022-11-20T07:03:11;6.49;94.32
71047;SHT31;58703;48.978;8.982;2022-11-20T07:05:37;6.48;94.36
71047;SHT31;58703;48.978;8.982;2022-11-20T07:08:04;6.45;95.24
71047;SHT31;58703;48.978;8.982;2022-11-20T07:10:31;6.42;94.75
71047;SHT31;58703;48.978;8.982;2022-11-20T07:12:57;6.36;95.97
71047;SHT31;58703;48.978;8.982;2022-11-20T07:15:24;6.26;97.08
71047;SHT31;58703;48.978;8.982;2022-11-20T07:17:50;6.14;97.87
71047;SHT31;58703;48.978;8.982;2022-11-20T07:20:15;6.11;97.85
71047;SHT31;58703;48.978;8.982;2022-11-20T07:22:42;6.22;96.47
71047;SHT31;58703;48.978;8.982;2022-11-20T07:25:08;6.26;96.04
71047;SHT31;58703;48.978;8.982;2022-11-20T07:27:36;6.25;96.52
71047;SHT31;58703;48.978;8.982;2022-11-20T07:30:02;6.32;95.54
71047;SHT31;58703;48.978;8.982;2022-11-20T07:32:28;6.38;95.28
71047;SHT31;58703;48.978;8.982;2022-11-20T07:34:54;6.42;95.62
71047;SHT31;58703;48.978;8.982;2022-11-20T07:37:19;6.50;94.37
71047;SHT31;58703;48.978;8.982;2022-11-20T07:39:45;6.41;95.79
71047;SHT31;58703;48.978;8.982;2022-11-20T07:42:11;6.49;94.30
71047;SHT31;58703;48.978;8.982;2022-11-20T07:44:37;6.59;93.59
71047;SHT31;58703;48.978;8.982;2022-11-20T07:47:03;6.56;93.64
71047;SHT31;58703;48.978;8.982;2022-11-20T07:49:29;6.46;95.12
71047;SHT31;58703;48.978;8.982;2022-11-20T07:51:55;6.49;94.55
71047;SHT31;58703;48.978;8.982;2022-11-20T07:54:21;6.45;95.21
71047;SHT31;58703;48.978;8.982;2022-11-20T07:56:48;6.61;93.01
71047;SHT31;58703;48.978;8.982;2022-11-20T07:59:15;6.80;91.50
71047;SHT31;58703;48.978;8.982;2022-11-20T08:01:42;6.76;92.34
71047;SHT31;58703;48.978;8.982;2022-11-20T08:04:08;6.62;93.10
71047;SHT31;58703;48.978;8.982;2022-11-20T08:06:34;6.65;92.48
71047;SHT31;58703;48.978;8.982;2022-11-20T08:08:59;6.61;93.22
71047;SHT31;58703;48.978;8.982;2022-11-20T08:11:25;6.65;93.58
71047;SHT31;58703;48.978;8.982;2022-11-20T08:14:10;6.59;93.11
71047;SHT31;58703;48.978;8.982;2022-11-20T08:16:46;6.59;93.64
71047;SHT31;58703;48.978;8.982;2022-11-20T08:19:17;6.57;93.53
71047;SHT31;58703;48.978;8.982;2022-11-20T08:21:44;6.50;95.18
71047;SHT31;58703;48.978;8.982;2022-11-20T08:24:10;6.35;95.80
71047;SHT31;58703;48.978;8.982;2022-11-20T08:26:36;6.34;96.66
71047;SHT31;58703;48.978;8.982;2022-11-20T08:29:04;6.34;96.31
71047;SHT31;58703;48.978;8.982;2022-11-20T08:31:31;6.26;97.12
71047;SHT31;58703;48.978;8.982;2022-11-20T08:33:56;6.26;96.87
71047;SHT31;58703;48.978;8.982;2022-11-20T08:36:23;6.29;97.38
71047;SHT31;58703;48.978;8.982;2022-11-20T08:38:53;6.31;97.20
71047;SHT31;58703;48.978;8.982;2022-11-20T08:41:19;6.34;97.19
71047;SHT31;58703;48.978;8.982;2022-11-20T08:44:01;6.32;98.75
71047;SHT31;58703;48.978;8.982;2022-11-20T08:46:34;6.34;98.87
71047;SHT31;58703;48.978;8.982;2022-11-20T08:49:02;6.25;99.11
71047;SHT31;58703;48.978;8.982;2022-11-20T08:51:28;6.26;98.56
71047;SHT31;58703;48.978;8.982;2022-11-20T08:53:55;6.29;99.14
71047;SHT31;58703;48.978;8.982;2022-11-20T08:56:20;6.34;98.21
71047;SHT31;58703;48.978;8.982;2022-11-20T08:58:46;6.52;96.37
71047;SHT31;58703;48.978;8.982;2022-11-20T09:01:12;6.53;96.84
71047;SHT31;58703;48.978;8.982;2022-11-20T09:03:38;6.55;97.37
71047;SHT31;58703;48.978;8.982;2022-11-20T09:06:06;6.62;97.51
71047;SHT31;58703;48.978;8.982;2022-11-20T09:08:32;6.71;96.62
71047;SHT31;58703;48.978;8.982;2022-11-20T09:10:58;6.79;95.94
71047;SHT31;58703;48.978;8.982;2022-11-20T09:13:26;6.82;96.15
71047;SHT31;58703;48.978;8.982;2022-11-20T09:15:57;6.85;96.37
71047;SHT31;58703;48.978;8.982;2022-11-20T09:18:25;6.96;94.67
71047;SHT31;58703;48.978;8.982;2022-11-20T09:21:00;6.99;94.99
71047;SHT31;58703;48.978;8.982;2022-11-20T09:23:31;7.06;94.65
71047;SHT31;58703;48.978;8.982;2022-11-20T09:25:58;7.07;95.50
71047;SHT31;58703;48.978;8.982;2022-11-20T09:28:26;7.11;94.62
71047;SHT31;58703;48.978;8.982;2022-11-20T09:30:51;7.17;94.61
71047;SHT31;58703;48.978;8.982;2022-11-20T09:33:18;7.16;94.69
71047;SHT31;58703;48.978;8.982;2022-11-20T09:35:45;7.20;94.29
71047;SHT31;58703;48.978;8.982;2022-11-20T09:38:12;7.14;94.39
71047;SHT31;58703;48.978;8.982;2022-11-20T09:40:45;7.01;95.12
71047;SHT31;58703;48.978;8.982;2022-11-20T09:43:18;6.99;95.13
71047;SHT31;58703;48.978;8.982;2022-11-20T09:46:07;6.99;95.62
71047;SHT31;58703;48.978;8.982;2022-11-20T09:49:00;6.96;96.71
71047;SHT31;58703;48.978;8.982;2022-11-20T09:56:27;6.87;97.15
71047;SHT31;58703;48.978;8.982;2022-11-20T09:58:55;6.83;97.48
71047;SHT31;58703;48.978;8.982;2022-11-20T10:01:34;6.82;96.79
71047;SHT31;58703;48.978;8.982;2022-11-20T10:04:08;6.85;96.67
71047;SHT31;58703;48.978;8.982;2022-11-20T10:09:34;6.86;97.00
71047;SHT31;58703;48.978;8.982;2022-11-20T10:17:31;6.96;96.39
71047;SHT31;58703;48.978;8.982;2022-11-20T10:20:40;7.01;96.65
71047;SHT31;58703;48.978;8.982;2022-11-20T10:23:25;7.06;95.87
71047;SHT31;58703;48.978;8.982;2022-11-20T10:26:21;7.10;96.12
71047;SHT31;58703;48.978;8.982;2022-11-20T10:31:33;7.16;95.71
71047;SHT31;58703;48.978;8.982;2022-11-20T10:34:06;7.13;94.05
71047;SHT31;58703;48.978;8.982;2022-11-20T10:36:40;7.17;94.41
71047;SHT31;58703;48.978;8.982;2022-11-20T10:39:16;7.17;94.51
71047;SHT31;58703;48.978;8.982;2022-11-20T10:41:44;7.16;95.25
71047;SHT31;58703;48.978;8.982;2022-11-20T10:44:19;7.17;95.22
71047;SHT31;58703;48.978;8.982;2022-11-20T10:47:05;7.17;94.20
71047;SHT31;58703;48.978;8.982;2022-11-20T10:49:32;7.04;94.57
71047;SHT31;58703;48.978;8.982;2022-11-20T10:52:31;6.89;95.53
71047;SHT31;58703;48.978;8.982;2022-11-20T11:00:37;6.85;96.17
71047;SHT31;58703;48.978;8.982;2022-11-20T11:03:02;6.92;96.51
71047;SHT31;58703;48.978;8.982;2022-11-20T11:05:54;7.04;96.60
71047;SHT31;58703;48.978;8.982;2022-11-20T11:08:26;7.08;95.30
71047;SHT31;58703;48.978;8.982;2022-11-20T11:10:57;7.21;95.89
71047;SHT31;58703;48.978;8.982;2022-11-20T11:13:29;7.30;95.82
71047;SHT31;58703;48.978;8.982;2022-11-20T11:15:55;7.46;94.83
71047;SHT31;58703;48.978;8.982;2022-11-20T11:18:26;7.77;94.15
71047;SHT31;58703;48.978;8.982;2022-11-20T11:20:53;8.19;93.36
71047;SHT31;58703;48.978;8.982;2022-11-20T11:23:40;8.33;92.45
71047;SHT31;58703;48.978;8.982;2022-11-20T11:26:19;8.64;90.53
71047;SHT31;58703;48.978;8.982;2022-11-20T11:29:03;9.16;90.23
71047;SHT31;58703;48.978;8.982;2022-11-20T11:31:34;9.59;90.02
71047;SHT31;58703;48.978;8.982;2022-11-20T11:34:16;9.14;88.39
71047;SHT31;58703;48.978;8.982;2022-11-20T11:36:51;8.65;87.68
71047;SHT31;58703;48.978;8.982;2022-11-20T11:39:20;8.81;89.04
71047;SHT31;58703;48.978;8.982;2022-11-20T11:41:47;8.56;86.99
71047;SHT31;58703;48.978;8.982;2022-11-20T11:44:17;8.73;88.27
71047;SHT31;58703;48.978;8.982;2022-11-20T11:47:10;9.24;87.36
71047;SHT31;58703;48.978;8.982;2022-11-20T11:49:36;9.56;85.16
71047;SHT31;58703;48.978;8.982;2022-11-20T11:52:13;9.59;83.78
71047;SHT31;58703;48.978;8.982;2022-11-20T11:55:04;9.21;83.94
71047;SHT31;58703;48.978;8.982;2022-11-20T12:00:16;8.52;85.69
71047;SHT31;58703;48.978;8.982;2022-11-20T12:05:18;8.42;85.28
71047;SHT31;58703;48.978;8.982;2022-11-20T12:07:53;8.53;85.93
71047;SHT31;58703;48.978;8.982;2022-11-20T12:12:58;8.52;84.84
71047;SHT31;58703;48.978;8.982;2022-11-20T12:15:33;8.74;85.95
71047;SHT31;58703;48.978;8.982;2022-11-20T12:17:59;8.75;84.56
71047;SHT31;58703;48.978;8.982;2022-11-20T12:20:37;8.91;84.71
71047;SHT31;58703;48.978;8.982;2022-11-20T12:23:36;8.74;84.21
71047;SHT31;58703;48.978;8.982;2022-11-20T12:26:14;8.65;82.79
71047;SHT31;58703;48.978;8.982;2022-11-20T12:37:28;8.78;82.48
71047;SHT31;58703;48.978;8.982;2022-11-20T12:40:00;8.84;83.67
71047;SHT31;58703;48.978;8.982;2022-11-20T12:43:01;8.65;80.97
71047;SHT31;58703;48.978;8.982;2022-11-20T12:45:51;9.12;82.12
71047;SHT31;58703;48.978;8.982;2022-11-20T13:01:46;9.48;78.90
71047;SHT31;58703;48.978;8.982;2022-11-20T13:07:11;9.21;77.12
71047;SHT31;58703;48.978;8.982;2022-11-20T13:09:42;9.46;76.85
71047;SHT31;58703;48.978;8.982;2022-11-20T13:12:31;8.98;78.59
71047;SHT31;58703;48.978;8.982;2022-11-20T13:18:02;8.50;78.28
71047;SHT31;58703;48.978;8.982;2022-11-20T13:20:29;8.52;79.58
71047;SHT31;58703;48.978;8.982;2022-11-20T13:22:56;8.50;79.72
71047;SHT31;58703;48.978;8.982;2022-11-20T13:27:51;8.46;80.81
71047;SHT31;58703;48.978;8.982;2022-11-20T13:30:22;8.40;81.23
71047;SHT31;58703;48.978;8.982;2022-11-20T13:33:28;8.37;82.49
71047;SHT31;58703;48.978;8.982;2022-11-20T13:38:22;7.96;83.86
71047;SHT31;58703;48.978;8.982;2022-11-20T13:40:53;8.01;84.18
71047;SHT31;58703;48.978;8.982;2022-11-20T13:43:38;7.99;83.38
71047;SHT31;58703;48.978;8.982;2022-11-20T13:46:08;8.17;83.64
71047;SHT31;58703;48.978;8.982;2022-11-20T13:48:47;8.54;84.18
71047;SHT31;58703;48.978;8.982;2022-11-20T14:02:29;8.54;82.10
71047;SHT31;58703;48.978;8.982;2022-11-20T14:04:58;8.42;81.76
71047;SHT31;58703;48.978;8.982;2022-11-20T14:07:32;8.39;81.28
71047;SHT31;58703;48.978;8.982;2022-11-20T14:10:00;8.40;80.96
71047;SHT31;58703;48.978;8.982;2022-11-20T14:12:31;8.53;81.17
71047;SHT31;58703;48.978;8.982;2022-11-20T14:14:58;8.68;79.99
71047;SHT31;58703;48.978;8.982;2022-11-20T14:17:34;8.54;80.98
71047;SHT31;58703;48.978;8.982;2022-11-20T14:20:06;8.53;80.16
71047;SHT31;58703;48.978;8.982;2022-11-20T14:22:33;8.46;80.03
71047;SHT31;58703;48.978;8.982;2022-11-20T14:27:52;8.53;77.49
71047;SHT31;58703;48.978;8.982;2022-11-20T14:30:22;9.16;74.41
71047;SHT31;58703;48.978;8.982;2022-11-20T14:32:53;8.94;74.88
71047;SHT31;58703;48.978;8.982;2022-11-20T14:35:27;8.61;76.24
71047;SHT31;58703;48.978;8.982;2022-11-20T14:37:55;8.53;77.37
71047;SHT31;58703;48.978;8.982;2022-11-20T14:40:35;8.78;75.19
71047;SHT31;58703;48.978;8.982;2022-11-20T14:45:46;8.57;76.14
71047;SHT31;58703;48.978;8.982;2022-11-20T14:48:15;8.28;76.77
71047;SHT31;58703;48.978;8.982;2022-11-20T14:50:42;8.14;77.58
71047;SHT31;58703;48.978;8.982;2022-11-20T14:53:08;8.09;77.87
71047;SHT31;58703;48.978;8.982;2022-11-20T14:55:36;8.14;78.25
71047;SHT31;58703;48.978;8.982;2022-11-20T14:58:24;7.98;78.27
71047;SHT31;58703;48.978;8.982;2022-11-20T15:00:59;7.93;77.98
71047;SHT31;58703;48.978;8.982;2022-11-20T15:03:37;7.82;79.20
71047;SHT31;58703;48.978;8.982;2022-11-20T15:06:04;7.69;79.44
71047;SHT31;58703;48.978;8.982;2022-11-20T15:08:31;7.62;80.14
71047;SHT31;58703;48.978;8.982;2022-11-20T15:10:58;7.52;80.41
71047;SHT31;58703;48.978;8.982;2022-11-20T15:13:38;7.46;80.39
71047;SHT31;58703;48.978;8.982;2022-11-20T15:16:17;7.35;81.10
71047;SHT31;58703;48.978;8.982;2022-11-20T15:18:43;7.21;81.75
71047;SHT31;58703;48.978;8.982;2022-11-20T15:21:13;7.13;81.94
71047;SHT31;58703;48.978;8.982;2022-11-20T15:23:41;7.00;82.74
71047;SHT31;58703;48.978;8.982;2022-11-20T15:26:08;6.86;83.27
71047;SHT31;58703;48.978;8.982;2022-11-20T15:28:42;6.89;82.80
71047;SHT31;58703;48.978;8.982;2022-11-20T15:31:12;6.79;84.61
71047;SHT31;58703;48.978;8.982;2022-11-20T15:33:39;6.76;83.14
71047;SHT31;58703;48.978;8.982;2022-11-20T15:36:06;6.73;83.99
71047;SHT31;58703;48.978;8.982;2022-11-20T15:38:33;6.72;84.20
71047;SHT31;58703;48.978;8.982;2022-11-20T15:41:00;6.68;85.87
71047;SHT31;58703;48.978;8.982;2022-11-20T15:43:26;6.56;86.73
71047;SHT31;58703;48.978;8.982;2022-11-20T15:45:59;6.42;86.52
71047;SHT31;58703;48.978;8.982;2022-11-20T15:48:29;6.42;86.36
71047;SHT31;58703;48.978;8.982;2022-11-20T15:53:40;6.24;86.92
71047;SHT31;58703;48.978;8.982;2022-11-20T15:56:12;6.11;88.93
71047;SHT31;58703;48.978;8.982;2022-11-20T15:58:38;6.07;88.84
71047;SHT31;58703;48.978;8.982;2022-11-20T16:01:04;6.00;90.07
71047;SHT31;58703;48.978;8.982;2022-11-20T16:03:30;6.05;89.57
71047;SHT31;58703;48.978;8.982;2022-11-20T16:05:56;6.03;88.64
71047;SHT31;58703;48.978;8.982;2022-11-20T16:08:23;5.98;88.29
71047;SHT31;58703;48.978;8.982;2022-11-20T16:10:50;5.95;88.86
71047;SHT31;58703;48.978;8.982;2022-11-20T16:13:17;6.04;87.99
71047;SHT31;58703;48.978;8.982;2022-11-20T16:16:05;5.94;88.31
71047;SHT31;58703;48.978;8.982;2022-11-20T16:18:32;6.01;87.49
71047;SHT31;58703;48.978;8.982;2022-11-20T16:20:58;6.10;87.13
71047;SHT31;58703;48.978;8.982;2022-11-20T16:23:24;6.13;87.66
71047;SHT31;58703;48.978;8.982;2022-11-20T16:25:50;6.10;88.37
71047;SHT31;58703;48.978;8.982;2022-11-20T16:28:18;6.10;90.49
71047;SHT31;58703;48.978;8.982;2022-11-20T16:30:43;6.03;91.19
71047;SHT31;58703;48.978;8.982;2022-11-20T16:33:14;5.95;92.08
71047;SHT31;58703;48.978;8.982;2022-11-20T16:35:40;5.81;92.77
71047;SHT31;58703;48.978;8.982;2022-11-20T16:38:07;5.74;92.89
71047;SHT31;58703;48.978;8.982;2022-11-20T16:40:33;5.69;90.55
71047;SHT31;58703;48.978;8.982;2022-11-20T16:43:12;5.63;92.47
71047;SHT31;58703;48.978;8.982;2022-11-20T16:45:42;5.69;90.51
71047;SHT31;58703;48.978;8.982;2022-11-20T16:48:13;5.80;93.08
71047;SHT31;58703;48.978;8.982;2022-11-20T16:50:51;5.84;91.42
71047;SHT31;58703;48.978;8.982;2022-11-20T16:53:21;5.84;90.69
71047;SHT31;58703;48.978;8.982;2022-11-20T16:55:47;5.83;89.01
71047;SHT31;58703;48.978;8.982;2022-11-20T16:58:22;5.90;91.69
71047;SHT31;58703;48.978;8.982;2022-11-20T17:00:54;5.87;90.63
71047;SHT31;58703;48.978;8.982;2022-11-20T17:03:33;5.87;91.83
71047;SHT31;58703;48.978;8.982;2022-11-20T17:06:03;5.87;91.14
71047;SHT31;58703;48.978;8.982;2022-11-20T17:08:52;5.87;92.77
71047;SHT31;58703;48.978;8.982;2022-11-20T17:11:22;5.81;93.54
71047;SHT31;58703;48.978;8.982;2022-11-20T17:13:49;5.77;91.45
71047;SHT31;58703;48.978;8.982;2022-11-20T17:16:32;5.77;91.54
71047;SHT31;58703;48.978;8.982;2022-11-20T17:19:04;5.83;90.76
71047;SHT31;58703;48.978;8.982;2022-11-20T17:21:56;5.80;90.50
71047;SHT31;58703;48.978;8.982;2022-11-20T17:24:43;5.91;89.89